sensor_id;sensor_type;location;lat;lon;timestamp;P1;durP1;ratioP1;P2;durP2;ratioP2
7471;SDS011;3777;48.722;8.110;2023-10-09T00:02:06;14.43;;;6.37;;
7471;SDS011;3777;48.722;8.110;2023-10-09T00:04:35;15.43;;;6.70;;
7471;SDS011;3777;48.722;8.110;2023-10-09T00:07:05;19.20;;;6.20;;
7471;SDS011;3777;48.722;8.110;2023-10-09T00:09:34;14.53;;;6.23;;
7471;SDS011;3777;48.722;8.110;2023-10-09T00:12:13;13.67;;;6.37;;
7471;SDS011;3777;48.722;8.110;2023-10-09T00:14:41;16.47;;;6.23;;
7471;SDS011;3777;48.722;8.110;2023-10-09T00:17:13;12.97;;;6.00;;
7471;SDS011;3777;48.722;8.110;2023-10-09T00:19:43;16.00;;;6.67;;
7471;SDS011;3777;48.722;8.110;2023-10-09T00:22:13;17.17;;;6.13;;
7471;SDS011;3777;48.722;8.110;2023-10-09T00:24:51;14.93;;;6.10;;
7471;SDS011;3777;48.722;8.110;2023-10-09T00:27:37;17.50;;;6.03;;
7471;SDS011;3777;48.722;8.110;2023-10-09T00:30:08;14.90;;;5.90;;
7471;SDS011;3777;48.722;8.110;2023-10-09T00:32:40;14.43;;;6.93;;
7471;SDS011;3777;48.722;8.110;2023-10-09T00:35:24;14.97;;;5.77;;
7471;SDS011;3777;48.722;8.110;2023-10-09T00:38:11;13.27;;;5.90;;
7471;SDS011;3777;48.722;8.110;2023-10-09T00:40:49;19.10;;;6.10;;
7471;SDS011;3777;48.722;8.110;2023-10-09T00:43:29;17.23;;;6.93;;
7471;SDS011;3777;48.722;8.110;2023-10-09T00:45:57;19.40;;;6.90;;
7471;SDS011;3777;48.722;8.110;2023-10-09T00:48:37;20.33;;;6.77;;
7471;SDS011;3777;48.722;8.110;2023-10-09T00:51:06;17.67;;;5.67;;
7471;SDS011;3777;48.722;8.110;2023-10-09T00:53:42;12.83;;;6.27;;
7471;SDS011;3777;48.722;8.110;2023-10-09T00:56:10;18.77;;;6.20;;
7471;SDS011;3777;48.722;8.110;2023-10-09T00:58:47;13.80;;;5.97;;
7471;SDS011;3777;48.722;8.110;2023-10-09T01:01:20;16.60;;;6.30;;
7471;SDS011;3777;48.722;8.110;2023-10-09T01:03:53;15.33;;;6.27;;
7471;SDS011;3777;48.722;8.110;2023-10-09T01:06:21;18.40;;;6.57;;
7471;SDS011;3777;48.722;8.110;2023-10-09T01:08:53;17.40;;;6.07;;
7471;SDS011;3777;48.722;8.110;2023-10-09T01:11:33;16.03;;;6.40;;
7471;SDS011;3777;48.722;8.110;2023-10-09T01:14:13;15.53;;;6.30;;
7471;SDS011;3777;48.722;8.110;2023-10-09T01:16:41;17.40;;;6.53;;
7471;SDS011;3777;48.722;8.110;2023-10-09T01:19:08;19.23;;;6.50;;
7471;SDS011;3777;48.722;8.110;2023-10-09T01:21:50;18.23;;;6.23;;
7471;SDS011;3777;48.722;8.110;2023-10-09T01:24:19;18.23;;;6.87;;
7471;SDS011;3777;48.722;8.110;2023-10-09T01:26:47;19.07;;;6.13;;
7471;SDS011;3777;48.722;8.110;2023-10-09T01:29:15;19.57;;;6.23;;
7471;SDS011;3777;48.722;8.110;2023-10-09T01:31:44;13.50;;;6.17;;
7471;SDS011;3777;48.722;8.110;2023-10-09T01:34:21;15.93;;;6.17;;
7471;SDS011;3777;48.722;8.110;2023-10-09T01:36:51;15.47;;;5.93;;
7471;SDS011;3777;48.722;8.110;2023-10-09T01:39:21;15.50;;;6.13;;
7471;SDS011;3777;48.722;8.110;2023-10-09T01:41:53;15.30;;;6.60;;
7471;SDS011;3777;48.722;8.110;2023-10-09T01:44:30;15.60;;;6.10;;
7471;SDS011;3777;48.722;8.110;2023-10-09T01:47:00;17.50;;;6.63;;
7471;SDS011;3777;48.722;8.110;2023-10-09T01:49:32;18.87;;;6.70;;
7471;SDS011;3777;48.722;8.110;2023-10-09T01:52:02;14.07;;;5.93;;
7471;SDS011;3777;48.722;8.110;2023-10-09T01:54:36;17.07;;;6.50;;
7471;SDS011;3777;48.722;8.110;2023-10-09T01:57:03;20.93;;;6.40;;
7471;SDS011;3777;48.722;8.110;2023-10-09T01:59:37;15.03;;;6.37;;
7471;SDS011;3777;48.722;8.110;2023-10-09T02:02:09;18.37;;;6.50;;
7471;SDS011;3777;48.722;8.110;2023-10-09T02:04:50;16.87;;;6.30;;
7471;SDS011;3777;48.722;8.110;2023-10-09T02:07:18;14.43;;;6.33;;
7471;SDS011;3777;48.722;8.110;2023-10-09T02:09:53;13.73;;;6.07;;
7471;SDS011;3777;48.722;8.110;2023-10-09T02:12:21;18.00;;;6.30;;
7471;SDS011;3777;48.722;8.110;2023-10-09T02:14:49;16.70;;;6.27;;
7471;SDS011;3777;48.722;8.110;2023-10-09T02:17:19;17.97;;;7.10;;
7471;SDS011;3777;48.722;8.110;2023-10-09T02:19:50;20.10;;;7.40;;
7471;SDS011;3777;48.722;8.110;2023-10-09T02:22:17;19.43;;;6.47;;
7471;SDS011;3777;48.722;8.110;2023-10-09T02:24:45;18.30;;;6.87;;
7471;SDS011;3777;48.722;8.110;2023-10-09T02:27:25;16.80;;;6.40;;
7471;SDS011;3777;48.722;8.110;2023-10-09T02:30:21;15.80;;;6.60;;
7471;SDS011;3777;48.722;8.110;2023-10-09T02:32:53;19.33;;;6.60;;
7471;SDS011;3777;48.722;8.110;2023-10-09T02:35:32;17.13;;;6.20;;
7471;SDS011;3777;48.722;8.110;2023-10-09T02:38:03;15.97;;;6.77;;
7471;SDS011;3777;48.722;8.110;2023-10-09T02:40:39;18.27;;;6.83;;
7471;SDS011;3777;48.722;8.110;2023-10-09T02:43:29;21.43;;;6.20;;
7471;SDS011;3777;48.722;8.110;2023-10-09T02:45:59;15.57;;;6.37;;
7471;SDS011;3777;48.722;8.110;2023-10-09T02:48:38;21.07;;;6.13;;
7471;SDS011;3777;48.722;8.110;2023-10-09T02:51:10;17.60;;;5.90;;
7471;SDS011;3777;48.722;8.110;2023-10-09T02:53:46;18.23;;;6.17;;
7471;SDS011;3777;48.722;8.110;2023-10-09T02:56:15;16.63;;;6.27;;
7471;SDS011;3777;48.722;8.110;2023-10-09T02:58:50;12.67;;;5.77;;
7471;SDS011;3777;48.722;8.110;2023-10-09T03:01:17;18.63;;;6.53;;
7471;SDS011;3777;48.722;8.110;2023-10-09T03:03:44;17.27;;;6.53;;
7471;SDS011;3777;48.722;8.110;2023-10-09T03:06:12;16.77;;;6.50;;
7471;SDS011;3777;48.722;8.110;2023-10-09T03:08:48;17.03;;;6.40;;
7471;SDS011;3777;48.722;8.110;2023-10-09T03:11:15;17.30;;;6.93;;
7471;SDS011;3777;48.722;8.110;2023-10-09T03:13:44;18.73;;;6.53;;
7471;SDS011;3777;48.722;8.110;2023-10-09T03:16:14;19.70;;;6.30;;
7471;SDS011;3777;48.722;8.110;2023-10-09T03:18:45;17.37;;;6.60;;
7471;SDS011;3777;48.722;8.110;2023-10-09T03:21:13;15.60;;;6.50;;
7471;SDS011;3777;48.722;8.110;2023-10-09T03:23:42;19.47;;;6.73;;
7471;SDS011;3777;48.722;8.110;2023-10-09T03:26:10;19.00;;;5.77;;
7471;SDS011;3777;48.722;8.110;2023-10-09T03:28:37;13.43;;;6.27;;
7471;SDS011;3777;48.722;8.110;2023-10-09T03:31:04;13.90;;;5.70;;
7471;SDS011;3777;48.722;8.110;2023-10-09T03:33:33;15.33;;;5.60;;
7471;SDS011;3777;48.722;8.110;2023-10-09T03:36:01;16.13;;;5.93;;
7471;SDS011;3777;48.722;8.110;2023-10-09T03:38:32;15.67;;;5.73;;
7471;SDS011;3777;48.722;8.110;2023-10-09T03:41:01;16.67;;;5.80;;
7471;SDS011;3777;48.722;8.110;2023-10-09T03:43:32;19.80;;;6.47;;
7471;SDS011;3777;48.722;8.110;2023-10-09T03:46:07;16.17;;;6.40;;
7471;SDS011;3777;48.722;8.110;2023-10-09T03:48:47;17.33;;;6.17;;
7471;SDS011;3777;48.722;8.110;2023-10-09T03:51:14;16.53;;;6.07;;
7471;SDS011;3777;48.722;8.110;2023-10-09T03:53:46;15.57;;;6.53;;
7471;SDS011;3777;48.722;8.110;2023-10-09T03:56:14;14.57;;;6.10;;
7471;SDS011;3777;48.722;8.110;2023-10-09T03:58:43;18.17;;;5.97;;
7471;SDS011;3777;48.722;8.110;2023-10-09T04:01:11;16.43;;;5.47;;
7471;SDS011;3777;48.722;8.110;2023-10-09T04:03:48;13.60;;;6.10;;
7471;SDS011;3777;48.722;8.110;2023-10-09T04:06:20;13.30;;;5.80;;
7471;SDS011;3777;48.722;8.110;2023-10-09T04:08:47;16.17;;;5.97;;
7471;SDS011;3777;48.722;8.110;2023-10-09T04:11:16;14.00;;;6.13;;
7471;SDS011;3777;48.722;8.110;2023-10-09T04:13:43;18.93;;;5.50;;
7471;SDS011;3777;48.722;8.110;2023-10-09T04:16:12;14.10;;;5.67;;
7471;SDS011;3777;48.722;8.110;2023-10-09T04:18:54;16.73;;;6.30;;
7471;SDS011;3777;48.722;8.110;2023-10-09T04:21:22;15.17;;;5.37;;
7471;SDS011;3777;48.722;8.110;2023-10-09T04:23:59;17.07;;;5.97;;
7471;SDS011;3777;48.722;8.110;2023-10-09T04:26:47;17.00;;;5.90;;
7471;SDS011;3777;48.722;8.110;2023-10-09T04:29:21;18.57;;;6.10;;
7471;SDS011;3777;48.722;8.110;2023-10-09T04:32:03;18.50;;;5.63;;
7471;SDS011;3777;48.722;8.110;2023-10-09T04:34:34;15.77;;;5.77;;
7471;SDS011;3777;48.722;8.110;2023-10-09T04:37:01;14.67;;;5.63;;
7471;SDS011;3777;48.722;8.110;2023-10-09T04:39:45;17.57;;;6.33;;
7471;SDS011;3777;48.722;8.110;2023-10-09T04:42:26;14.10;;;5.27;;
7471;SDS011;3777;48.722;8.110;2023-10-09T04:45:02;18.07;;;5.53;;
7471;SDS011;3777;48.722;8.110;2023-10-09T04:48:02;15.63;;;5.70;;
7471;SDS011;3777;48.722;8.110;2023-10-09T04:50:34;17.23;;;6.23;;
7471;SDS011;3777;48.722;8.110;2023-10-09T04:53:38;16.50;;;5.77;;
7471;SDS011;3777;48.722;8.110;2023-10-09T04:56:13;15.53;;;5.40;;
7471;SDS011;3777;48.722;8.110;2023-10-09T04:58:41;15.70;;;6.20;;
7471;SDS011;3777;48.722;8.110;2023-10-09T05:01:10;16.83;;;6.40;;
7471;SDS011;3777;48.722;8.110;2023-10-09T05:03:42;14.60;;;5.63;;
7471;SDS011;3777;48.722;8.110;2023-10-09T05:06:20;18.07;;;5.90;;
7471;SDS011;3777;48.722;8.110;2023-10-09T05:08:46;16.10;;;5.63;;
7471;SDS011;3777;48.722;8.110;2023-10-09T05:11:13;12.63;;;5.50;;
7471;SDS011;3777;48.722;8.110;2023-10-09T05:13:59;18.40;;;6.43;;
7471;SDS011;3777;48.722;8.110;2023-10-09T05:16:38;15.83;;;5.93;;
7471;SDS011;3777;48.722;8.110;2023-10-09T05:19:19;17.47;;;6.47;;
7471;SDS011;3777;48.722;8.110;2023-10-09T05:22:00;17.87;;;6.10;;
7471;SDS011;3777;48.722;8.110;2023-10-09T05:24:32;15.53;;;5.77;;
7471;SDS011;3777;48.722;8.110;2023-10-09T05:27:09;15.33;;;5.50;;
7471;SDS011;3777;48.722;8.110;2023-10-09T05:29:43;18.67;;;6.67;;
7471;SDS011;3777;48.722;8.110;2023-10-09T05:32:37;17.90;;;6.73;;
7471;SDS011;3777;48.722;8.110;2023-10-09T05:35:13;16.50;;;5.90;;
7471;SDS011;3777;48.722;8.110;2023-10-09T05:37:42;14.17;;;5.83;;
7471;SDS011;3777;48.722;8.110;2023-10-09T05:40:11;14.47;;;6.03;;
7471;SDS011;3777;48.722;8.110;2023-10-09T05:42:48;13.10;;;5.67;;
7471;SDS011;3777;48.722;8.110;2023-10-09T05:45:24;16.30;;;6.17;;
7471;SDS011;3777;48.722;8.110;2023-10-09T05:48:09;15.63;;;6.13;;
7471;SDS011;3777;48.722;8.110;2023-10-09T05:50:49;17.23;;;6.23;;
7471;SDS011;3777;48.722;8.110;2023-10-09T05:53:32;13.60;;;5.37;;
7471;SDS011;3777;48.722;8.110;2023-10-09T05:56:22;14.70;;;6.60;;
7471;SDS011;3777;48.722;8.110;2023-10-09T05:59:08;14.53;;;6.03;;
7471;SDS011;3777;48.722;8.110;2023-10-09T06:01:52;16.17;;;6.20;;
7471;SDS011;3777;48.722;8.110;2023-10-09T06:04:37;14.23;;;5.77;;
7471;SDS011;3777;48.722;8.110;2023-10-09T06:07:19;17.47;;;6.10;;
7471;SDS011;3777;48.722;8.110;2023-10-09T06:09:51;13.67;;;6.47;;
7471;SDS011;3777;48.722;8.110;2023-10-09T06:12:19;17.17;;;6.37;;
7471;SDS011;3777;48.722;8.110;2023-10-09T06:15:27;22.23;;;9.13;;
7471;SDS011;3777;48.722;8.110;2023-10-09T06:18:16;19.63;;;6.77;;
7471;SDS011;3777;48.722;8.110;2023-10-09T06:20:51;23.83;;;7.17;;
7471;SDS011;3777;48.722;8.110;2023-10-09T06:23:35;16.97;;;6.50;;
7471;SDS011;3777;48.722;8.110;2023-10-09T06:26:33;19.23;;;6.63;;
7471;SDS011;3777;48.722;8.110;2023-10-09T06:29:00;21.03;;;6.07;;
7471;SDS011;3777;48.722;8.110;2023-10-09T06:32:00;17.03;;;6.10;;
7471;SDS011;3777;48.722;8.110;2023-10-09T06:34:56;21.80;;;6.10;;
7471;SDS011;3777;48.722;8.110;2023-10-09T06:37:41;14.33;;;5.43;;
7471;SDS011;3777;48.722;8.110;2023-10-09T06:40:30;16.83;;;6.30;;
7471;SDS011;3777;48.722;8.110;2023-10-09T06:43:16;18.20;;;5.33;;
7471;SDS011;3777;48.722;8.110;2023-10-09T06:45:52;19.73;;;5.60;;
7471;SDS011;3777;48.722;8.110;2023-10-09T06:48:23;17.70;;;6.03;;
7471;SDS011;3777;48.722;8.110;2023-10-09T06:51:12;15.60;;;5.43;;
7471;SDS011;3777;48.722;8.110;2023-10-09T06:54:01;16.17;;;5.90;;
7471;SDS011;3777;48.722;8.110;2023-10-09T06:56:31;14.27;;;4.87;;
7471;SDS011;3777;48.722;8.110;2023-10-09T06:59:13;17.43;;;5.90;;
7471;SDS011;3777;48.722;8.110;2023-10-09T07:01:46;17.53;;;6.40;;
7471;SDS011;3777;48.722;8.110;2023-10-09T07:04:35;20.27;;;6.53;;
7471;SDS011;3777;48.722;8.110;2023-10-09T07:07:21;14.03;;;5.53;;
7471;SDS011;3777;48.722;8.110;2023-10-09T07:09:50;17.83;;;5.97;;
7471;SDS011;3777;48.722;8.110;2023-10-09T07:12:35;18.33;;;5.90;;
7471;SDS011;3777;48.722;8.110;2023-10-09T07:15:09;16.47;;;5.63;;
7471;SDS011;3777;48.722;8.110;2023-10-09T07:18:02;17.23;;;6.03;;
7471;SDS011;3777;48.722;8.110;2023-10-09T07:20:58;14.53;;;6.03;;
7471;SDS011;3777;48.722;8.110;2023-10-09T07:23:26;16.03;;;6.37;;
7471;SDS011;3777;48.722;8.110;2023-10-09T07:26:05;15.13;;;6.10;;
7471;SDS011;3777;48.722;8.110;2023-10-09T07:28:45;17.30;;;6.20;;
7471;SDS011;3777;48.722;8.110;2023-10-09T07:31:17;13.50;;;5.60;;
7471;SDS011;3777;48.722;8.110;2023-10-09T07:34:04;15.90;;;5.83;;
7471;SDS011;3777;48.722;8.110;2023-10-09T07:36:55;17.27;;;5.90;;
7471;SDS011;3777;48.722;8.110;2023-10-09T07:39:22;15.63;;;5.73;;
7471;SDS011;3777;48.722;8.110;2023-10-09T07:41:48;13.00;;;5.37;;
7471;SDS011;3777;48.722;8.110;2023-10-09T07:44:32;16.80;;;5.17;;
7471;SDS011;3777;48.722;8.110;2023-10-09T07:47:07;14.33;;;5.87;;
7471;SDS011;3777;48.722;8.110;2023-10-09T07:49:48;14.23;;;5.40;;
7471;SDS011;3777;48.722;8.110;2023-10-09T07:52:20;10.17;;;4.70;;
7471;SDS011;3777;48.722;8.110;2023-10-09T07:54:48;14.43;;;5.17;;
7471;SDS011;3777;48.722;8.110;2023-10-09T07:57:27;15.93;;;5.20;;
7471;SDS011;3777;48.722;8.110;2023-10-09T08:00:04;15.00;;;5.07;;
7471;SDS011;3777;48.722;8.110;2023-10-09T08:03:00;17.67;;;5.03;;
7471;SDS011;3777;48.722;8.110;2023-10-09T08:05:28;14.30;;;5.50;;
7471;SDS011;3777;48.722;8.110;2023-10-09T08:08:01;16.73;;;5.60;;
7471;SDS011;3777;48.722;8.110;2023-10-09T08:10:43;17.13;;;5.70;;
7471;SDS011;3777;48.722;8.110;2023-10-09T08:13:24;16.67;;;5.97;;
7471;SDS011;3777;48.722;8.110;2023-10-09T08:16:08;16.77;;;5.77;;
7471;SDS011;3777;48.722;8.110;2023-10-09T08:18:42;17.37;;;5.73;;
7471;SDS011;3777;48.722;8.110;2023-10-09T08:21:10;15.73;;;5.33;;
7471;SDS011;3777;48.722;8.110;2023-10-09T08:24:07;13.97;;;5.50;;
7471;SDS011;3777;48.722;8.110;2023-10-09T08:26:54;16.77;;;5.40;;
7471;SDS011;3777;48.722;8.110;2023-10-09T08:29:54;20.57;;;5.63;;
7471;SDS011;3777;48.722;8.110;2023-10-09T08:32:41;16.50;;;5.13;;
7471;SDS011;3777;48.722;8.110;2023-10-09T08:35:09;18.77;;;5.30;;
7471;SDS011;3777;48.722;8.110;2023-10-09T08:37:51;16.83;;;5.65;;
7471;SDS011;3777;48.722;8.110;2023-10-09T08:40:19;24.15;;;6.68;;
7471;SDS011;3777;48.722;8.110;2023-10-09T08:42:47;17.40;;;6.32;;
7471;SDS011;3777;48.722;8.110;2023-10-09T08:45:20;16.55;;;6.22;;
7471;SDS011;3777;48.722;8.110;2023-10-09T08:47:53;18.50;;;5.05;;
7471;SDS011;3777;48.722;8.110;2023-10-09T08:50:20;18.13;;;5.68;;
7471;SDS011;3777;48.722;8.110;2023-10-09T08:52:47;12.65;;;4.78;;
7471;SDS011;3777;48.722;8.110;2023-10-09T08:55:16;19.02;;;5.75;;
7471;SDS011;3777;48.722;8.110;2023-10-09T08:57:45;20.42;;;5.18;;
7471;SDS011;3777;48.722;8.110;2023-10-09T09:00:16;15.52;;;5.45;;
7471;SDS011;3777;48.722;8.110;2023-10-09T09:02:46;17.30;;;5.40;;
7471;SDS011;3777;48.722;8.110;2023-10-09T09:05:17;21.30;;;5.50;;
7471;SDS011;3777;48.722;8.110;2023-10-09T09:07:45;18.52;;;5.50;;
7471;SDS011;3777;48.722;8.110;2023-10-09T09:10:13;18.05;;;5.45;;
7471;SDS011;3777;48.722;8.110;2023-10-09T09:12:45;17.13;;;5.32;;
7471;SDS011;3777;48.722;8.110;2023-10-09T09:15:13;13.63;;;4.45;;
7471;SDS011;3777;48.722;8.110;2023-10-09T09:17:45;15.48;;;4.95;;
7471;SDS011;3777;48.722;8.110;2023-10-09T09:20:22;17.92;;;4.88;;
7471;SDS011;3777;48.722;8.110;2023-10-09T09:22:54;17.35;;;5.07;;
7471;SDS011;3777;48.722;8.110;2023-10-09T09:25:22;22.17;;;5.45;;
7471;SDS011;3777;48.722;8.110;2023-10-09T09:27:52;15.88;;;5.45;;
7471;SDS011;3777;48.722;8.110;2023-10-09T09:30:23;17.55;;;5.38;;
7471;SDS011;3777;48.722;8.110;2023-10-09T09:32:56;16.48;;;4.97;;
7471;SDS011;3777;48.722;8.110;2023-10-09T09:35:55;15.02;;;5.20;;
7471;SDS011;3777;48.722;8.110;2023-10-09T09:38:25;18.90;;;5.72;;
7471;SDS011;3777;48.722;8.110;2023-10-09T09:40:54;16.25;;;4.85;;
7471;SDS011;3777;48.722;8.110;2023-10-09T09:43:29;18.67;;;5.43;;
7471;SDS011;3777;48.722;8.110;2023-10-09T09:46:00;15.55;;;5.63;;
7471;SDS011;3777;48.722;8.110;2023-10-09T09:48:33;15.50;;;5.05;;
7471;SDS011;3777;48.722;8.110;2023-10-09T09:51:04;16.15;;;4.90;;
7471;SDS011;3777;48.722;8.110;2023-10-09T09:53:33;16.60;;;5.10;;
7471;SDS011;3777;48.722;8.110;2023-10-09T09:56:01;17.77;;;5.38;;
7471;SDS011;3777;48.722;8.110;2023-10-09T09:58:32;14.68;;;4.65;;
7471;SDS011;3777;48.722;8.110;2023-10-09T10:01:08;18.52;;;4.82;;
7471;SDS011;3777;48.722;8.110;2023-10-09T10:03:42;15.40;;;5.10;;
7471;SDS011;3777;48.722;8.110;2023-10-09T10:06:14;16.52;;;5.13;;
7471;SDS011;3777;48.722;8.110;2023-10-09T10:08:44;16.08;;;4.78;;
7471;SDS011;3777;48.722;8.110;2023-10-09T10:14:10;13.20;;;4.65;;
7471;SDS011;3777;48.722;8.110;2023-10-09T10:16:59;17.23;;;4.93;;
7471;SDS011;3777;48.722;8.110;2023-10-09T10:22:47;17.33;;;4.97;;
7471;SDS011;3777;48.722;8.110;2023-10-09T10:28:15;14.68;;;4.60;;
7471;SDS011;3777;48.722;8.110;2023-10-09T10:30:54;17.83;;;5.18;;
7471;SDS011;3777;48.722;8.110;2023-10-09T10:33:25;21.23;;;5.40;;
7471;SDS011;3777;48.722;8.110;2023-10-09T10:35:53;17.85;;;4.78;;
7471;SDS011;3777;48.722;8.110;2023-10-09T10:38:30;13.23;;;4.70;;
7471;SDS011;3777;48.722;8.110;2023-10-09T10:41:11;14.48;;;4.93;;
7471;SDS011;3777;48.722;8.110;2023-10-09T10:43:41;19.55;;;4.75;;
7471;SDS011;3777;48.722;8.110;2023-10-09T10:46:21;12.65;;;4.72;;
7471;SDS011;3777;48.722;8.110;2023-10-09T10:49:02;14.30;;;4.35;;
7471;SDS011;3777;48.722;8.110;2023-10-09T10:51:40;12.88;;;4.45;;
7471;SDS011;3777;48.722;8.110;2023-10-09T10:54:19;17.23;;;4.88;;
7471;SDS011;3777;48.722;8.110;2023-10-09T10:57:18;21.85;;;4.57;;
7471;SDS011;3777;48.722;8.110;2023-10-09T11:00:18;20.35;;;4.20;;
7471;SDS011;3777;48.722;8.110;2023-10-09T11:03:00;14.52;;;4.80;;
7471;SDS011;3777;48.722;8.110;2023-10-09T11:05:42;12.73;;;4.68;;
7471;SDS011;3777;48.722;8.110;2023-10-09T11:08:15;11.68;;;4.10;;
7471;SDS011;3777;48.722;8.110;2023-10-09T11:10:47;19.23;;;4.55;;
7471;SDS011;3777;48.722;8.110;2023-10-09T11:13:22;12.82;;;4.15;;
7471;SDS011;3777;48.722;8.110;2023-10-09T11:16:00;15.70;;;4.57;;
7471;SDS011;3777;48.722;8.110;2023-10-09T11:18:55;16.40;;;4.85;;
7471;SDS011;3777;48.722;8.110;2023-10-09T11:21:29;13.93;;;4.32;;
7471;SDS011;3777;48.722;8.110;2023-10-09T11:24:06;11.70;;;4.65;;
7471;SDS011;3777;48.722;8.110;2023-10-09T11:26:51;15.90;;;4.68;;
7471;SDS011;3777;48.722;8.110;2023-10-09T11:29:22;17.25;;;4.85;;
7471;SDS011;3777;48.722;8.110;2023-10-09T11:31:58;19.35;;;5.30;;
7471;SDS011;3777;48.722;8.110;2023-10-09T11:34:28;15.73;;;5.07;;
7471;SDS011;3777;48.722;8.110;2023-10-09T11:36:58;16.73;;;5.03;;
7471;SDS011;3777;48.722;8.110;2023-10-09T11:39:27;14.32;;;4.65;;
7471;SDS011;3777;48.722;8.110;2023-10-09T11:42:04;16.38;;;5.22;;
7471;SDS011;3777;48.722;8.110;2023-10-09T11:44:35;13.43;;;5.05;;
7471;SDS011;3777;48.722;8.110;2023-10-09T11:47:05;17.90;;;4.93;;
7471;SDS011;3777;48.722;8.110;2023-10-09T11:49:59;14.93;;;4.60;;
7471;SDS011;3777;48.722;8.110;2023-10-09T11:52:56;10.85;;;3.92;;
7471;SDS011;3777;48.722;8.110;2023-10-09T11:55:43;16.17;;;5.30;;
7471;SDS011;3777;48.722;8.110;2023-10-09T11:58:13;17.92;;;4.88;;
7471;SDS011;3777;48.722;8.110;2023-10-09T12:00:48;14.82;;;4.45;;
7471;SDS011;3777;48.722;8.110;2023-10-09T12:03:16;12.98;;;4.57;;
7471;SDS011;3777;48.722;8.110;2023-10-09T12:05:49;15.50;;;5.13;;
7471;SDS011;3777;48.722;8.110;2023-10-09T12:08:18;14.90;;;5.03;;
7471;SDS011;3777;48.722;8.110;2023-10-09T12:10:47;14.85;;;4.70;;
7471;SDS011;3777;48.722;8.110;2023-10-09T12:13:14;13.20;;;4.85;;
7471;SDS011;3777;48.722;8.110;2023-10-09T12:15:41;11.50;;;4.40;;
7471;SDS011;3777;48.722;8.110;2023-10-09T12:18:11;12.07;;;4.68;;
7471;SDS011;3777;48.722;8.110;2023-10-09T12:20:41;13.93;;;4.80;;
7471;SDS011;3777;48.722;8.110;2023-10-09T12:23:17;17.58;;;5.22;;
7471;SDS011;3777;48.722;8.110;2023-10-09T12:25:45;15.48;;;5.18;;
7471;SDS011;3777;48.722;8.110;2023-10-09T12:28:14;13.07;;;4.50;;
7471;SDS011;3777;48.722;8.110;2023-10-09T12:30:45;20.30;;;5.10;;
7471;SDS011;3777;48.722;8.110;2023-10-09T12:33:15;14.77;;;5.22;;
7471;SDS011;3777;48.722;8.110;2023-10-09T12:35:43;12.85;;;4.88;;
7471;SDS011;3777;48.722;8.110;2023-10-09T12:38:12;18.63;;;5.00;;
7471;SDS011;3777;48.722;8.110;2023-10-09T12:40:45;17.65;;;5.00;;
7471;SDS011;3777;48.722;8.110;2023-10-09T12:43:17;11.25;;;4.50;;
7471;SDS011;3777;48.722;8.110;2023-10-09T12:45:45;12.10;;;4.95;;
7471;SDS011;3777;48.722;8.110;2023-10-09T12:48:12;14.38;;;4.78;;
7471;SDS011;3777;48.722;8.110;2023-10-09T12:50:39;14.10;;;4.70;;
7471;SDS011;3777;48.722;8.110;2023-10-09T12:53:09;14.43;;;4.93;;
7471;SDS011;3777;48.722;8.110;2023-10-09T12:55:42;17.35;;;4.30;;
7471;SDS011;3777;48.722;8.110;2023-10-09T12:58:11;20.55;;;4.68;;
7471;SDS011;3777;48.722;8.110;2023-10-09T13:00:41;15.00;;;4.80;;
7471;SDS011;3777;48.722;8.110;2023-10-09T13:03:13;13.90;;;4.53;;
7471;SDS011;3777;48.722;8.110;2023-10-09T13:05:46;16.63;;;4.55;;
7471;SDS011;3777;48.722;8.110;2023-10-09T13:08:24;17.38;;;5.05;;
7471;SDS011;3777;48.722;8.110;2023-10-09T13:11:02;18.38;;;4.82;;
7471;SDS011;3777;48.722;8.110;2023-10-09T13:13:36;16.50;;;5.30;;
7471;SDS011;3777;48.722;8.110;2023-10-09T13:16:07;14.55;;;5.00;;
7471;SDS011;3777;48.722;8.110;2023-10-09T13:18:37;15.63;;;5.28;;
7471;SDS011;3777;48.722;8.110;2023-10-09T13:21:05;24.42;;;5.30;;
7471;SDS011;3777;48.722;8.110;2023-10-09T13:23:32;19.90;;;5.32;;
7471;SDS011;3777;48.722;8.110;2023-10-09T13:26:09;21.30;;;5.28;;
7471;SDS011;3777;48.722;8.110;2023-10-09T13:28:47;22.08;;;5.38;;
7471;SDS011;3777;48.722;8.110;2023-10-09T13:31:16;21.60;;;5.45;;
7471;SDS011;3777;48.722;8.110;2023-10-09T13:33:43;17.02;;;5.03;;
7471;SDS011;3777;48.722;8.110;2023-10-09T13:36:13;15.10;;;5.57;;
7471;SDS011;3777;48.722;8.110;2023-10-09T13:38:44;12.27;;;4.47;;
7471;SDS011;3777;48.722;8.110;2023-10-09T13:41:13;16.85;;;5.47;;
7471;SDS011;3777;48.722;8.110;2023-10-09T13:43:43;16.48;;;4.57;;
7471;SDS011;3777;48.722;8.110;2023-10-09T13:46:10;15.90;;;5.35;;
7471;SDS011;3777;48.722;8.110;2023-10-09T13:48:39;14.93;;;4.20;;
7471;SDS011;3777;48.722;8.110;2023-10-09T13:51:07;12.32;;;4.30;;
7471;SDS011;3777;48.722;8.110;2023-10-09T13:53:39;13.82;;;4.50;;
7471;SDS011;3777;48.722;8.110;2023-10-09T13:56:10;13.32;;;4.50;;
7471;SDS011;3777;48.722;8.110;2023-10-09T13:58:45;18.00;;;4.50;;
7471;SDS011;3777;48.722;8.110;2023-10-09T14:01:12;18.90;;;4.75;;
7471;SDS011;3777;48.722;8.110;2023-10-09T14:03:52;15.68;;;5.05;;
7471;SDS011;3777;48.722;8.110;2023-10-09T14:06:20;15.68;;;4.82;;
7471;SDS011;3777;48.722;8.110;2023-10-09T14:08:55;12.48;;;4.20;;
7471;SDS011;3777;48.722;8.110;2023-10-09T14:11:24;18.75;;;4.53;;
7471;SDS011;3777;48.722;8.110;2023-10-09T14:13:51;11.80;;;4.20;;
7471;SDS011;3777;48.722;8.110;2023-10-09T14:16:18;15.50;;;4.43;;
7471;SDS011;3777;48.722;8.110;2023-10-09T14:18:58;18.00;;;5.00;;
7471;SDS011;3777;48.722;8.110;2023-10-09T14:21:26;18.83;;;5.20;;
7471;SDS011;3777;48.722;8.110;2023-10-09T14:23:55;18.85;;;4.75;;
7471;SDS011;3777;48.722;8.110;2023-10-09T14:26:28;13.43;;;4.38;;
7471;SDS011;3777;48.722;8.110;2023-10-09T14:28:56;17.95;;;4.70;;
7471;SDS011;3777;48.722;8.110;2023-10-09T14:31:23;12.38;;;4.32;;
7471;SDS011;3777;48.722;8.110;2023-10-09T14:33:54;14.38;;;4.22;;
7471;SDS011;3777;48.722;8.110;2023-10-09T14:36:21;19.95;;;4.88;;
7471;SDS011;3777;48.722;8.110;2023-10-09T14:38:50;13.82;;;4.60;;
7471;SDS011;3777;48.722;8.110;2023-10-09T14:41:19;11.98;;;4.15;;
7471;SDS011;3777;48.722;8.110;2023-10-09T14:43:50;16.00;;;4.07;;
7471;SDS011;3777;48.722;8.110;2023-10-09T14:46:18;11.90;;;4.22;;
7471;SDS011;3777;48.722;8.110;2023-10-09T14:48:50;14.30;;;4.55;;
7471;SDS011;3777;48.722;8.110;2023-10-09T14:51:19;17.83;;;5.10;;
7471;SDS011;3777;48.722;8.110;2023-10-09T14:53:52;19.42;;;4.35;;
7471;SDS011;3777;48.722;8.110;2023-10-09T14:56:22;13.88;;;4.50;;
7471;SDS011;3777;48.722;8.110;2023-10-09T14:58:55;15.15;;;4.60;;
7471;SDS011;3777;48.722;8.110;2023-10-09T15:01:23;22.25;;;5.22;;
7471;SDS011;3777;48.722;8.110;2023-10-09T15:03:53;27.58;;;5.93;;
7471;SDS011;3777;48.722;8.110;2023-10-09T15:06:25;16.35;;;5.25;;
7471;SDS011;3777;48.722;8.110;2023-10-09T15:08:55;14.13;;;4.68;;
7471;SDS011;3777;48.722;8.110;2023-10-09T15:11:24;19.92;;;5.70;;
7471;SDS011;3777;48.722;8.110;2023-10-09T15:13:53;16.95;;;5.40;;
7471;SDS011;3777;48.722;8.110;2023-10-09T15:16:24;12.10;;;4.55;;
7471;SDS011;3777;48.722;8.110;2023-10-09T15:18:55;12.60;;;5.05;;
7471;SDS011;3777;48.722;8.110;2023-10-09T15:21:22;13.07;;;4.85;;
7471;SDS011;3777;48.722;8.110;2023-10-09T15:23:51;12.35;;;4.45;;
7471;SDS011;3777;48.722;8.110;2023-10-09T15:26:19;15.27;;;4.18;;
7471;SDS011;3777;48.722;8.110;2023-10-09T15:28:47;11.73;;;4.30;;
7471;SDS011;3777;48.722;8.110;2023-10-09T15:31:17;15.95;;;4.57;;
7471;SDS011;3777;48.722;8.110;2023-10-09T15:33:46;19.20;;;5.43;;
7471;SDS011;3777;48.722;8.110;2023-10-09T15:36:17;13.85;;;4.97;;
7471;SDS011;3777;48.722;8.110;2023-10-09T15:38:45;13.30;;;4.32;;
7471;SDS011;3777;48.722;8.110;2023-10-09T15:41:12;9.57;;;3.90;;
7471;SDS011;3777;48.722;8.110;2023-10-09T15:43:40;13.73;;;4.60;;
7471;SDS011;3777;48.722;8.110;2023-10-09T15:46:10;13.10;;;4.28;;
7471;SDS011;3777;48.722;8.110;2023-10-09T15:48:40;11.90;;;4.07;;
7471;SDS011;3777;48.722;8.110;2023-10-09T15:51:11;10.85;;;4.07;;
7471;SDS011;3777;48.722;8.110;2023-10-09T15:53:40;13.07;;;5.03;;